Time;durP1;ratioP1;P1;durP2;ratioP2;P2;SDS_P1;SDS_P2;PMS_P1;PMS_P2;Temp;Humidity;BMP_temperature;BMP_pressure;BME280_temperature;BME280_humidity;BME280_pressure;Samples;Min_cycle;Max_cycle;Signal;HPM_P1;HPM_P2
2021/09/27 00:02:08;;;;;;;5.00;3.08;;;;;;;22.58;55.87;101434.13;5015668;28;20090;-65
2021/09/27 00:04:34;;;;;;;5.38;2.97;;;;;;;22.57;55.77;101432.47;5014696;28;20346;-64
2021/09/27 00:07:00;;;;;;;4.05;2.63;;;;;;;22.56;55.77;101425.47;5015049;28;20417;-65
2021/09/27 00:09:32;;;;;;;4.53;2.92;;;;;;;22.55;55.76;101422.97;5015369;28;20428;-65
2021/09/27 00:12:10;;;;;;;4.85;3.00;;;;;;;22.55;55.91;101417.66;5014536;28;20096;-64
2021/09/27 00:14:36;;;;;;;4.70;2.88;;;;;;;22.54;55.88;101427.44;5015686;28;20042;-64
2021/09/27 00:17:07;;;;;;;5.95;3.72;;;;;;;22.52;55.74;101424.06;5015121;28;20091;-64
2021/09/27 00:19:35;;;;;;;4.63;2.80;;;;;;;22.52;56.06;101423.25;5014871;28;20049;-64
2021/09/27 00:22:01;;;;;;;4.05;2.75;;;;;;;22.51;55.73;101426.88;5014969;28;20384;-64
2021/09/27 00:24:26;;;;;;;4.43;2.80;;;;;;;22.51;55.87;101416.25;5014731;28;20105;-64
2021/09/27 00:26:52;;;;;;;5.15;3.10;;;;;;;22.50;56.07;101418.06;5014907;28;20041;-64
2021/09/27 00:29:17;;;;;;;5.10;3.30;;;;;;;22.51;56.04;101416.25;5015370;28;20057;-64
2021/09/27 00:31:43;;;;;;;4.63;3.03;;;;;;;22.52;56.00;101418.75;5014523;28;20064;-64
2021/09/27 00:34:08;;;;;;;4.82;3.20;;;;;;;22.51;55.69;101410.94;5014724;28;20022;-64
2021/09/27 00:36:33;;;;;;;4.50;2.97;;;;;;;22.51;55.75;101411.78;5015004;28;20062;-66
2021/09/27 00:38:59;;;;;;;4.53;2.67;;;;;;;22.51;55.82;101413.59;5013868;28;20389;-64
2021/09/27 00:41:26;;;;;;;4.30;2.75;;;;;;;22.46;55.82;101404.25;5014880;28;20042;-64
2021/09/27 00:43:52;;;;;;;5.45;3.28;;;;;;;22.46;55.78;101401.59;5014838;28;20022;-64
2021/09/27 00:46:22;;;;;;;3.95;2.60;;;;;;;22.48;55.84;101404.09;5014418;28;20097;-64
2021/09/27 00:48:47;;;;;;;4.30;2.83;;;;;;;22.45;55.52;101404.38;5014755;28;20185;-64
2021/09/27 00:51:23;;;;;;;4.63;3.08;;;;;;;22.45;55.76;101399.88;5014649;28;20513;-65
2021/09/27 00:54:01;;;;;;;4.40;2.92;;;;;;;22.45;55.85;101397.22;5014016;28;20026;-64
2021/09/27 00:56:39;;;;;;;4.60;2.67;;;;;;;22.44;55.76;101398.19;5014979;28;20117;-65
2021/09/27 00:59:08;;;;;;;4.45;2.95;;;;;;;22.43;55.67;101393.91;5014499;28;20041;-64
2021/09/27 01:01:34;;;;;;;5.88;3.30;;;;;;;22.42;55.59;101386.88;5013876;28;20080;-64
2021/09/27 01:04:00;;;;;;;5.15;3.00;;;;;;;22.43;55.62;101398.34;5014114;28;20046;-65
2021/09/27 01:06:57;;;;;;;4.82;2.90;;;;;;;22.41;55.47;101393.19;5014071;28;20046;-65
2021/09/27 01:09:45;;;;;;;5.07;3.00;;;;;;;22.42;55.71;101399.34;5014835;28;20107;-65
2021/09/27 01:12:29;;;;;;;4.28;2.80;;;;;;;22.41;55.78;101395.00;5014402;28;20037;-65
2021/09/27 01:15:33;;;;;;;4.93;2.67;;;;;;;22.39;55.79;101391.66;5013888;28;20076;-65
2021/09/27 01:18:11;;;;;;;4.53;2.80;;;;;;;22.38;55.73;101401.44;5014408;28;20088;-65
2021/09/27 01:20:56;;;;;;;4.60;2.80;;;;;;;22.38;55.57;101403.25;5013862;28;20108;-65
2021/09/27 01:23:58;;;;;;;4.57;2.78;;;;;;;22.38;55.58;101411.22;5014432;28;20069;-65
2021/09/27 01:26:38;;;;;;;4.68;3.00;;;;;;;22.37;55.69;101404.25;5014260;28;20046;-64
2021/09/27 01:29:35;;;;;;;4.30;2.83;;;;;;;22.38;55.78;101403.25;5013128;28;20066;-63
2021/09/27 01:32:18;;;;;;;5.05;2.67;;;;;;;22.37;55.51;101393.63;5013885;28;20041;-64
2021/09/27 01:34:54;;;;;;;4.65;2.90;;;;;;;22.35;55.42;101388.44;5013777;28;20389;-65
2021/09/27 01:37:36;;;;;;;5.47;3.03;;;;;;;22.36;55.65;101384.78;5013797;28;20065;-65
2021/09/27 01:40:26;;;;;;;4.65;2.88;;;;;;;22.38;55.49;101380.19;5013955;28;20046;-64
2021/09/27 01:42:55;;;;;;;4.22;2.88;;;;;;;22.37;55.49;101383.81;5013079;28;20393;-65
2021/09/27 01:45:37;;;;;;;4.93;2.95;;;;;;;22.36;55.48;101378.66;5014121;28;20057;-65
2021/09/27 01:48:11;;;;;;;5.50;3.20;;;;;;;22.33;55.58;101371.78;5013741;28;20037;-64
2021/09/27 01:51:13;;;;;;;4.53;2.70;;;;;;;22.36;55.46;101376.00;5013088;28;20018;-64
2021/09/27 01:54:06;;;;;;;4.47;2.75;;;;;;;22.35;55.58;101369.84;5012534;28;20045;-64
2021/09/27 01:56:52;;;;;;;4.13;2.70;;;;;;;22.33;55.37;101363.81;5013250;28;20022;-64
2021/09/27 01:59:56;;;;;;;4.50;2.72;;;;;;;22.35;55.65;101355.72;5013679;28;20049;-64
2021/09/27 02:02:33;;;;;;;4.15;2.60;;;;;;;22.36;55.65;101365.38;5002189;28;20197;-64
2021/09/27 02:05:10;;;;;;;4.57;3.00;;;;;;;22.36;55.68;101371.50;5012266;28;20139;-64
2021/09/27 02:07:47;;;;;;;4.10;2.80;;;;;;;22.34;55.64;101376.13;5013589;28;20026;-64
2021/09/27 02:10:22;;;;;;;5.03;3.15;;;;;;;22.33;55.70;101371.78;5012819;28;20030;-64
2021/09/27 02:13:06;;;;;;;4.28;2.72;;;;;;;22.33;55.47;101376.28;5013056;28;20054;-64
2021/09/27 02:15:40;;;;;;;4.88;2.67;;;;;;;22.32;55.69;101369.28;5013524;28;20040;-64
2021/09/27 02:18:18;;;;;;;4.88;2.83;;;;;;;22.31;55.78;101373.75;5012269;28;20044;-64
2021/09/27 02:20:50;;;;;;;4.57;2.92;;;;;;;22.33;55.64;101379.75;5013469;28;20022;-65
2021/09/27 02:23:23;;;;;;;4.97;2.97;;;;;;;22.33;55.64;101365.66;5013078;28;20483;-64
2021/09/27 02:25:49;;;;;;;5.15;2.83;;;;;;;22.33;55.68;101373.63;5012288;28;20065;-64
2021/09/27 02:28:18;;;;;;;4.13;2.40;;;;;;;22.33;55.55;101365.66;5013352;28;20056;-64
2021/09/27 02:30:56;;;;;;;4.88;2.97;;;;;;;22.32;55.74;101370.13;5013295;28;20179;-65
2021/09/27 02:33:45;;;;;;;4.85;3.05;;;;;;;22.32;55.59;101361.31;5012927;28;20038;-64
2021/09/27 02:36:34;;;;;;;4.93;2.65;;;;;;;22.31;55.45;101357.81;5012836;28;20109;-65
2021/09/27 02:39:09;;;;;;;5.82;3.10;;;;;;;22.30;55.56;101358.78;5012100;28;20172;-65
2021/09/27 02:41:40;;;;;;;4.63;2.97;;;;;;;22.31;55.49;101360.47;5012972;28;20026;-64
2021/09/27 02:44:06;;;;;;;4.13;2.75;;;;;;;22.31;55.46;101352.53;5012457;28;20446;-64
2021/09/27 02:46:32;;;;;;;5.47;3.15;;;;;;;22.26;55.51;101347.59;5012277;28;20041;-64
2021/09/27 02:49:11;;;;;;;4.90;2.75;;;;;;;22.28;55.41;101358.06;5012677;28;20029;-64
2021/09/27 02:51:38;;;;;;;4.60;2.72;;;;;;;22.26;55.41;101352.91;5012772;28;20017;-64
2021/09/27 02:54:05;;;;;;;4.22;2.72;;;;;;;22.24;55.54;101349.56;5011670;28;20030;-64
2021/09/27 02:56:31;;;;;;;5.18;2.75;;;;;;;22.25;55.43;101355.69;5012616;28;20040;-64
2021/09/27 02:59:18;;;;;;;4.03;2.70;;;;;;;22.24;55.34;101360.19;5011935;28;20108;-65
2021/09/27 03:02:07;;;;;;;5.22;2.88;;;;;;;22.22;55.72;101362.13;5012805;28;20107;-65
2021/09/27 03:05:03;;;;;;;4.15;2.65;;;;;;;22.24;55.46;101359.34;5012464;28;20104;-64
2021/09/27 03:07:47;;;;;;;4.50;2.75;;;;;;;22.24;55.44;101354.03;5011990;28;20030;-64
2021/09/27 03:10:19;;;;;;;;;;;;;;;22.24;55.54;101354.88;5013178;28;20390;-65
2021/09/27 03:12:56;;;;;;;3.95;2.38;;;;;;;22.26;55.50;101354.72;5012781;28;19913;-65
2021/09/27 03:16:05;;;;;;;4.45;2.67;;;;;;;22.25;55.52;101361.00;5012957;28;20044;-65
2021/09/27 03:19:08;;;;;;;4.25;2.40;;;;;;;22.24;55.62;101352.22;5016646;28;20038;-65
2021/09/27 03:21:44;;;;;;;4.28;2.67;;;;;;;22.24;55.67;101344.25;5015712;28;20026;-64
2021/09/27 03:24:21;;;;;;;4.82;2.53;;;;;;;22.25;55.52;101347.72;5016387;28;20034;-64
2021/09/27 03:27:02;;;;;;;4.53;2.55;;;;;;;22.24;55.58;101348.72;5016508;28;20037;-64
2021/09/27 03:29:56;;;;;;;4.32;2.67;;;;;;;22.23;55.52;101341.72;5015777;28;20377;-64
2021/09/27 03:33:07;;;;;;;5.03;2.75;;;;;;;22.24;55.60;101349.56;5016422;28;20034;-64
2021/09/27 03:35:49;;;;;;;5.38;2.85;;;;;;;22.26;55.45;101346.75;5010402;28;20034;-65
2021/09/27 03:38:29;;;;;;;4.60;2.78;;;;;;;22.25;55.76;101345.91;5016159;28;20034;-64
2021/09/27 03:41:20;;;;;;;5.95;2.85;;;;;;;22.25;55.60;101334.47;5016035;28;20048;-65
2021/09/27 03:44:03;;;;;;;5.65;2.95;;;;;;;22.26;55.50;101336.97;5016153;28;20033;-64
2021/09/27 03:46:50;;;;;;;4.25;2.72;;;;;;;22.25;55.76;101335.28;5016029;28;20042;-65
2021/09/27 03:49:27;;;;;;;4.45;2.70;;;;;;;22.26;55.72;101338.78;5015481;28;20030;-65
2021/09/27 03:52:00;;;;;;;4.38;2.75;;;;;;;22.23;55.55;101337.25;5015709;28;20483;-64
2021/09/27 03:54:50;;;;;;;7.30;2.75;;;;;;;22.24;55.81;101332.81;5016169;28;20077;-65
2021/09/27 03:57:27;;;;;;;4.05;2.65;;;;;;;22.23;55.70;101325.81;5015200;28;20025;-64
2021/09/27 04:00:15;;;;;;;4.63;2.78;;;;;;;22.23;55.82;101329.28;5015609;28;20033;-65
2021/09/27 04:02:50;;;;;;;4.43;2.83;;;;;;;22.25;55.82;101326.50;5015153;28;20041;-65
2021/09/27 04:05:41;;;;;;;4.53;2.83;;;;;;;22.26;55.84;101328.19;5015618;28;20037;-64
2021/09/27 04:08:28;;;;;;;4.28;2.65;;;;;;;22.26;55.65;101338.78;5015462;28;20030;-64
2021/09/27 04:11:18;;;;;;;5.20;3.08;;;;;;;22.24;55.78;101325.66;5014956;28;20057;-65
2021/09/27 04:14:01;;;;;;;4.75;2.67;;;;;;;22.26;55.57;101325.53;5015549;28;20022;-64
2021/09/27 04:17:06;;;;;;;4.82;2.85;;;;;;;22.25;55.50;101319.34;5014597;28;20436;-64
2021/09/27 04:19:46;;;;;;;4.50;2.50;;;;;;;22.25;55.83;101322.00;5015403;28;20041;-65
2021/09/27 04:22:53;;;;;;;4.55;2.58;;;;;;;22.24;55.59;101320.34;5015400;28;20021;-64
2021/09/27 04:26:01;;;;;;;4.72;2.80;;;;;;;22.23;55.50;101316.00;5014629;28;20397;-64
2021/09/27 04:28:51;;;;;;;5.25;2.75;;;;;;;22.25;55.51;101321.19;5013969;28;20052;-65
2021/09/27 04:31:33;;;;;;;5.43;3.15;;;;;;;22.23;55.48;101315.19;5014524;28;20076;-64
2021/09/27 04:34:14;;;;;;;4.97;3.03;;;;;;;22.23;55.91;101318.66;5014882;28;20096;-64
2021/09/27 04:36:46;;;;;;;4.05;2.72;;;;;;;22.23;55.52;101310.69;5015161;28;20030;-64
2021/09/27 04:39:15;;;;;;;5.22;2.92;;;;;;;22.24;55.47;101314.22;5014060;28;20144;-64
2021/09/27 04:42:13;;;;;;;4.93;2.80;;;;;;;22.24;55.47;101314.22;5015188;28;20038;-64
2021/09/27 04:44:55;;;;;;;5.03;2.72;;;;;;;22.22;55.42;101321.47;5005095;28;20044;-64
2021/09/27 04:47:47;;;;;;;5.63;2.88;;;;;;;22.21;55.62;101314.50;5015013;28;20053;-66
2021/09/27 04:50:24;;;;;;;4.22;2.70;;;;;;;22.20;55.73;101313.63;5014853;28;20033;-64
2021/09/27 04:52:57;;;;;;;4.70;2.63;;;;;;;22.21;55.50;101314.50;5013864;28;20026;-65
2021/09/27 04:55:58;;;;;;;4.37;2.60;;;;;;;22.20;55.52;101313.63;5014864;28;20533;-64
2021/09/27 04:58:55;;;;;;;6.53;4.10;;;;;;;22.19;55.61;101303.16;5014574;28;20550;-65
2021/09/27 05:01:32;;;;;;;5.03;2.97;;;;;;;22.19;55.55;101303.16;5014402;28;20120;-64
2021/09/27 05:04:04;;;;;;;4.30;2.70;;;;;;;22.20;55.58;101302.19;5013937;28;20422;-65
2021/09/27 05:06:41;;;;;;;4.50;2.70;;;;;;;22.19;55.55;101305.81;5013943;28;20026;-64
2021/09/27 05:09:28;;;;;;;4.45;2.60;;;;;;;22.18;55.62;101299.69;5014242;28;20478;-65
2021/09/27 05:12:17;;;;;;;5.30;2.75;;;;;;;22.21;55.49;101298.56;5013999;28;20425;-64
2021/09/27 05:15:19;;;;;;;5.28;2.80;;;;;;;22.22;55.58;101300.22;5013517;28;20038;-63
2021/09/27 05:18:05;;;;;;;4.78;3.03;;;;;;;22.20;55.62;101289.75;5014311;28;20026;-65
2021/09/27 05:20:52;;;;;;;4.70;2.80;;;;;;;22.20;55.68;101284.44;5013766;28;20042;-64
2021/09/27 05:23:39;;;;;;;5.10;3.00;;;;;;;22.20;55.76;101288.91;5014249;28;20057;-64
2021/09/27 05:26:28;;;;;;;4.60;2.75;;;;;;;22.20;55.61;101294.22;5013841;28;20489;-64
2021/09/27 05:29:29;;;;;;;4.07;2.60;;;;;;;22.22;55.85;101287.81;5012865;28;20045;-64
2021/09/27 05:31:57;;;;;;;4.35;2.80;;;;;;;22.22;55.60;101292.25;5013643;28;20077;-64
2021/09/27 05:35:13;;;;;;;5.20;2.97;;;;;;;22.21;55.61;101293.25;5013128;28;20053;-65
2021/09/27 05:38:10;;;;;;;4.35;2.67;;;;;;;22.21;55.68;101294.09;5008331;28;20376;-65
2021/09/27 05:40:54;;;;;;;4.43;2.60;;;;;;;22.22;55.64;101303.75;4992051;28;20046;-65
2021/09/27 05:43:53;;;;;;;4.85;2.92;;;;;;;22.22;55.96;101289.59;4992306;28;20518;-64
2021/09/27 05:46:43;;;;;;;4.43;2.58;;;;;;;22.23;55.59;101291.28;5013968;28;20034;-64
2021/09/27 05:49:14;;;;;;;4.68;2.70;;;;;;;22.23;55.77;101296.59;5012594;28;20057;-64
2021/09/27 05:51:47;;;;;;;5.13;2.90;;;;;;;22.22;55.66;101279.84;5014005;28;20018;-64
2021/09/27 05:54:38;;;;;;;4.82;2.75;;;;;;;22.22;55.66;101286.94;5013627;28;20037;-64
2021/09/27 05:57:13;;;;;;;4.63;2.90;;;;;;;22.23;55.61;101281.50;5012591;28;20113;-64
2021/09/27 06:00:11;;;;;;;4.80;2.78;;;;;;;22.22;55.64;101286.94;5013456;28;20371;-65
2021/09/27 06:02:46;;;;;;;4.60;2.75;;;;;;;22.22;55.94;101294.91;5012885;28;20044;-66
2021/09/27 06:05:30;;;;;;;5.82;3.35;;;;;;;22.16;56.09;101287.50;5013116;28;20050;-66
2021/09/27 06:08:32;;;;;;;4.95;2.70;;;;;;;22.07;56.08;101283.91;5013057;28;20033;-65
2021/09/27 06:11:12;;;;;;;4.32;2.83;;;;;;;22.05;56.44;101280.56;5012159;28;20033;-65
2021/09/27 06:13:43;;;;;;;4.78;2.92;;;;;;;22.03;56.62;101278.03;5013153;28;20548;-68
2021/09/27 06:17:03;;;;;;;5.25;2.95;;;;;;;22.00;56.82;101286.28;5012131;28;20042;-66
2021/09/27 06:19:44;;;;;;;5.30;2.92;;;;;;;21.99;56.76;101281.09;5013248;28;20029;-67
2021/09/27 06:22:11;;;;;;;4.72;3.05;;;;;;;21.99;56.86;101276.63;5012681;28;20118;-70
2021/09/27 06:24:58;;;;;;;4.55;3.08;;;;;;;22.00;56.89;101274.81;5012074;28;20474;-67
2021/09/27 06:27:33;;;;;;;4.05;2.65;;;;;;;22.00;56.88;101280.97;5012891;28;20092;-65
2021/09/27 06:30:03;;;;;;;5.65;3.55;;;;;;;22.01;57.22;101274.66;5012128;28;20041;-69
2021/09/27 06:32:50;;;;;;;5.15;2.85;;;;;;;22.05;57.28;101288.50;5013047;28;20046;-66
2021/09/27 06:35:19;;;;;;;4.47;2.80;;;;;;;22.03;57.10;101279.84;5012837;28;20033;-68
2021/09/27 06:37:45;;;;;;;6.53;3.08;;;;;;;22.03;57.33;101277.19;5012243;28;20033;-68
2021/09/27 06:40:11;;;;;;;5.68;2.72;;;;;;;22.03;57.29;101275.38;5012610;28;20022;-72
2021/09/27 06:42:39;;;;;;;5.85;3.00;;;;;;;22.04;57.53;101279.69;5012856;28;20029;-72
2021/09/27 06:45:09;;;;;;;4.57;3.03;;;;;;;22.05;57.27;101280.56;5011816;28;20175;-72
2021/09/27 06:47:35;;;;;;;5.38;2.72;;;;;;;22.07;57.30;101276.75;5012790;28;20052;-70
2021/09/27 06:50:00;;;;;;;5.00;2.80;;;;;;;22.08;57.38;101281.09;5012210;28;20454;-68
2021/09/27 06:52:27;;;;;;;5.00;2.97;;;;;;;22.12;57.37;101272.84;5012373;28;20060;-71
2021/09/27 06:54:55;;;;;;;4.90;2.83;;;;;;;22.13;57.35;101270.06;5012467;28;20437;-71
2021/09/27 06:57:20;;;;;;;5.03;2.70;;;;;;;22.18;57.05;101274.97;5012824;28;20022;-70
2021/09/27 06:59:45;;;;;;;4.97;3.28;;;;;;;22.18;57.35;101265.16;5012005;28;20108;-72
2021/09/27 07:02:12;;;;;;;7.60;2.90;;;;;;;22.19;57.27;101271.31;5012349;28;20037;-68
2021/09/27 07:04:38;;;;;;;5.40;2.78;;;;;;;22.17;57.26;101263.47;5012459;28;20046;-66
2021/09/27 07:07:06;;;;;;;6.05;3.28;;;;;;;22.17;57.34;101255.50;5011558;28;20018;-68
2021/09/27 07:09:31;;;;;;;5.88;2.65;;;;;;;22.21;57.26;101253.44;5007990;28;20286;-67
2021/09/27 07:12:00;;;;;;;4.95;2.67;;;;;;;22.26;57.29;101251.19;5009912;28;20073;-64
2021/09/27 07:14:28;;;;;;;5.32;3.22;;;;;;;22.27;57.36;101251.03;5009863;28;20492;-65
2021/09/27 07:16:56;;;;;;;6.72;3.10;;;;;;;22.32;57.07;101250.66;5010817;28;20022;-66
2021/09/27 07:19:22;;;;;;;5.88;2.92;;;;;;;22.36;57.07;101253.84;5009552;28;20115;-66
2021/09/27 07:21:47;;;;;;;4.90;2.90;;;;;;;22.39;57.03;101243.78;5010762;28;20021;-66
2021/09/27 07:24:15;;;;;;;5.55;3.05;;;;;;;22.43;57.05;101245.19;5010964;28;20030;-67
2021/09/27 07:26:44;;;;;;;5.15;3.20;;;;;;;22.40;57.10;101247.28;5010935;28;20371;-66
2021/09/27 07:29:09;;;;;;;5.00;3.17;;;;;;;22.41;56.88;101244.50;5011111;28;20049;-64
2021/09/27 07:31:35;;;;;;;5.10;2.92;;;;;;;22.40;56.71;101234.84;5010675;28;20034;-65
2021/09/27 07:34:04;;;;;;;5.13;2.78;;;;;;;22.42;56.78;101245.31;5009930;28;20026;-67
2021/09/27 07:36:29;;;;;;;6.40;3.25;;;;;;;22.45;56.95;101237.06;5011230;28;20053;-70
2021/09/27 07:38:55;;;;;;;5.03;3.38;;;;;;;22.53;56.76;101237.19;5011243;28;20080;-68
2021/09/27 07:41:21;;;;;;;5.85;3.35;;;;;;;22.55;56.55;101247.66;5010199;28;20026;-66
2021/09/27 07:43:48;;;;;;;4.90;2.80;;;;;;;22.58;56.53;101244.72;5011142;28;20109;-66
2021/09/27 07:46:15;;;;;;;5.78;3.30;;;;;;;22.61;56.46;101249.75;5012012;28;20030;-66
2021/09/27 07:48:46;;;;;;;5.60;3.13;;;;;;;22.64;56.44;101237.00;5010633;28;20042;-66
2021/09/27 07:51:12;;;;;;;4.38;2.67;;;;;;;22.67;56.53;101241.19;5010927;28;20045;-68
2021/09/27 07:53:40;;;;;;;5.15;3.25;;;;;;;22.69;56.24;101236.56;5010846;28;20042;-70
2021/09/27 07:56:05;;;;;;;4.70;2.85;;;;;;;22.70;56.39;101229.44;5008867;28;20061;-70
2021/09/27 07:58:30;;;;;;;4.88;2.90;;;;;;;22.71;56.33;101236.44;5009836;28;20061;-66
2021/09/27 08:00:56;;;;;;;4.30;2.72;;;;;;;22.72;56.13;101233.63;5010798;28;20429;-67
2021/09/27 08:03:22;;;;;;;5.93;2.92;;;;;;;22.74;56.10;101239.63;5012266;28;20054;-69
2021/09/27 08:05:48;;;;;;;5.05;2.90;;;;;;;22.74;56.19;101231.66;5013045;28;20120;-70
2021/09/27 08:08:14;;;;;;;6.20;3.30;;;;;;;22.72;56.23;101238.94;5012539;28;20045;-67
2021/09/27 08:10:40;;;;;;;7.03;2.85;;;;;;;22.73;56.44;101231.78;5012828;28;20397;-69
2021/09/27 08:13:09;;;;;;;4.40;3.05;;;;;;;22.76;56.31;101235.00;5013355;28;20136;-65
2021/09/27 08:15:42;;;;;;;4.68;2.78;;;;;;;22.78;56.24;101235.69;5012587;28;20394;-66
2021/09/27 08:18:09;;;;;;;6.05;3.03;;;;;;;22.78;56.06;101227.72;5013240;28;20491;-68
2021/09/27 08:20:40;;;;;;;5.45;2.90;;;;;;;22.78;56.40;101242.81;5013306;28;20026;-67
2021/09/27 08:23:08;;;;;;;7.88;3.25;;;;;;;22.78;56.18;101235.69;5012226;28;20120;-64
2021/09/27 08:25:34;;;;;;;4.47;2.75;;;;;;;22.79;55.88;101234.69;5013428;28;20025;-66
2021/09/27 08:28:00;;;;;;;6.05;2.70;;;;;;;22.83;55.89;101237.91;5013662;28;20113;-66
2021/09/27 08:30:29;;;;;;;5.22;3.15;;;;;;;22.85;56.04;101224.50;5012897;28;20018;-65
2021/09/27 08:32:55;;;;;;;4.75;2.88;;;;;;;22.86;55.79;101232.31;5012870;28;20393;-67
2021/09/27 08:35:21;;;;;;;4.82;2.90;;;;;;;22.88;55.75;101234.81;5012754;28;20026;-65
2021/09/27 08:37:46;;;;;;;4.55;2.60;;;;;;;22.89;55.77;101237.34;5012140;28;20466;-63
2021/09/27 08:40:27;;;;;;;7.28;3.20;;;;;;;22.90;55.50;101233.69;5013084;28;20097;-64
2021/09/27 08:42:56;;;;;;;5.18;2.85;;;;;;;22.90;55.60;101231.03;5012713;28;20370;-64
2021/09/27 08:45:28;;;;;;;4.40;2.65;;;;;;;22.89;55.61;101228.50;5012059;28;20032;-63
2021/09/27 08:48:12;;;;;;;4.43;2.45;;;;;;;22.87;55.57;101222.50;5011942;28;20030;-63
2021/09/27 08:50:42;;;;;;;4.90;2.53;;;;;;;22.88;55.74;101229.50;5011719;28;20030;-65
2021/09/27 08:53:19;;;;;;;5.40;2.75;;;;;;;22.91;55.49;101227.38;5012893;28;20065;-64
2021/09/27 08:55:45;;;;;;;5.85;2.38;;;;;;;22.91;55.52;101229.22;5013034;28;20034;-71
2021/09/27 08:58:35;;;;;;;4.57;3.15;;;;;;;22.95;55.48;101233.25;5012207;28;20088;-70
2021/09/27 09:01:17;;;;;;;4.90;2.67;;;;;;;22.94;55.50;101228.91;5012957;28;20135;-69
2021/09/27 09:04:02;;;;;;;5.05;2.70;;;;;;;22.94;55.27;101215.63;4991599;28;20045;-66
2021/09/27 09:06:40;;;;;;;5.07;2.70;;;;;;;22.95;55.74;101219.94;4991707;28;20038;-66
2021/09/27 09:09:24;;;;;;;4.75;2.38;;;;;;;22.95;55.44;101222.59;4991813;28;20061;-66
2021/09/27 09:12:26;;;;;;;4.35;2.70;;;;;;;22.95;55.86;101219.94;4991484;28;20096;-67
2021/09/27 09:15:00;;;;;;;4.57;2.67;;;;;;;22.97;55.59;101229.47;4991174;28;20041;-67
2021/09/27 09:17:47;;;;;;;5.53;2.70;;;;;;;22.98;55.55;101228.47;4991522;28;20058;-68
2021/09/27 09:20:27;;;;;;;4.75;2.40;;;;;;;22.96;55.86;101226.94;4991704;28;20026;-66
2021/09/27 09:22:53;;;;;;;5.07;3.00;;;;;;;22.98;55.48;101223.16;4991759;28;20336;-66
2021/09/27 09:25:28;;;;;;;4.45;2.50;;;;;;;23.03;55.38;101221.88;4990958;28;20033;-66
2021/09/27 09:27:57;;;;;;;4.40;2.35;;;;;;;23.03;55.68;101221.88;4991652;28;20022;-69
2021/09/27 09:30:35;;;;;;;5.20;2.78;;;;;;;23.03;55.31;101220.03;4991542;28;20034;-68
2021/09/27 09:33:00;;;;;;;5.18;2.25;;;;;;;23.05;55.62;101206.59;4989827;28;20537;-66
2021/09/27 09:35:29;;;;;;;4.65;2.35;;;;;;;23.05;55.33;101202.16;4991979;28;20038;-66
2021/09/27 09:38:00;;;;;;;4.25;2.50;;;;;;;23.05;55.42;101203.94;4991500;28;20049;-66
2021/09/27 09:40:40;;;;;;;4.22;2.40;;;;;;;23.07;55.16;101208.16;4990688;28;20039;-65
2021/09/27 09:43:26;;;;;;;4.80;2.72;;;;;;;23.07;55.45;101202.81;4991778;28;20038;-65
2021/09/27 09:46:06;;;;;;;3.97;2.40;;;;;;;23.06;55.32;101198.47;4990962;28;20049;-66
2021/09/27 09:48:34;;;;;;;3.97;2.38;;;;;;;23.07;55.14;101188.72;4991046;28;20114;-66
2021/09/27 09:51:22;;;;;;;5.18;2.85;;;;;;;23.05;55.03;101185.34;4991276;28;20463;-66
2021/09/27 09:54:01;;;;;;;4.68;2.13;;;;;;;23.05;54.83;101180.03;4991231;28;20117;-66
2021/09/27 09:56:35;;;;;;;6.43;2.65;;;;;;;23.03;55.43;101182.84;4992105;28;20097;-66
2021/09/27 09:59:15;;;;;;;3.78;2.08;;;;;;;23.01;55.29;101196.28;4989960;28;20085;-67
2021/09/27 10:01:41;;;;;;;4.32;2.38;;;;;;;23.01;55.38;101182.16;4991002;28;20467;-67
2021/09/27 10:04:11;;;;;;;4.07;2.20;;;;;;;23.03;55.44;101192.63;4991821;28;20588;-65
2021/09/27 10:06:36;;;;;;;4.47;2.30;;;;;;;23.03;55.24;101177.53;4992479;28;20474;-68
2021/09/27 10:09:06;;;;;;;4.72;2.22;;;;;;;23.05;55.47;101185.34;4990262;28;20030;-66
2021/09/27 10:11:37;;;;;;;3.95;2.15;;;;;;;23.04;55.40;101187.19;4991141;28;20516;-68
2021/09/27 10:14:41;;;;;;;3.78;2.50;;;;;;;23.06;55.15;101184.38;4990824;28;20030;-67
2021/09/27 10:17:31;;;;;;;5.55;2.42;;;;;;;23.06;54.87;101182.53;4989876;28;20042;-65
2021/09/27 10:20:20;;;;;;;5.57;2.13;;;;;;;23.07;54.92;101186.06;4991103;28;20054;-66
2021/09/27 10:22:55;;;;;;;3.80;2.35;;;;;;;23.09;55.08;101182.28;4990281;28;20490;-65
2021/09/27 10:25:29;;;;;;;3.92;2.17;;;;;;;23.11;54.90;101177.63;4989244;28;20122;-66
2021/09/27 10:27:58;;;;;;;3.65;2.13;;;;;;;23.10;54.98;101173.31;4991728;28;20023;-67
2021/09/27 10:30:38;;;;;;;4.63;2.10;;;;;;;23.11;54.93;101174.16;4988983;28;20026;-69
2021/09/27 10:33:15;;;;;;;4.20;2.22;;;;;;;23.11;55.29;101171.50;4990613;28;20035;-68
2021/09/27 10:36:08;;;;;;;4.18;2.13;;;;;;;23.10;55.15;101173.31;4991931;28;20088;-68
2021/09/27 10:38:40;;;;;;;5.07;2.22;;;;;;;23.08;54.95;101172.66;4990810;28;20451;-66
2021/09/27 10:41:36;;;;;;;6.70;2.20;;;;;;;23.10;55.59;101168.00;4989709;28;20030;-67
2021/09/27 10:44:21;;;;;;;3.85;1.80;;;;;;;23.10;55.44;101175.97;4991264;28;20030;-73
2021/09/27 10:46:50;;;;;;;4.60;2.20;;;;;;;23.10;55.39;101168.00;4991386;28;20034;-70
2021/09/27 10:49:26;;;;;;;4.60;2.00;;;;;;;23.09;55.68;101166.31;4991315;28;20030;-73
2021/09/27 10:51:56;;;;;;;4.95;2.22;;;;;;;23.07;55.74;101168.28;4990795;28;20474;-71
2021/09/27 10:54:54;;;;;;;4.40;2.20;;;;;;;23.06;55.63;101171.91;4990518;28;20313;-67
2021/09/27 10:57:24;;;;;;;4.47;1.90;;;;;;;23.06;55.83;101160.44;4990641;28;20113;-66
2021/09/27 10:59:59;;;;;;;5.72;2.20;;;;;;;23.11;55.75;101169.66;4992873;28;20482;-66
2021/09/27 11:02:31;;;;;;;5.70;1.90;;;;;;;23.12;55.50;101168.69;4990451;28;20030;-65
2021/09/27 11:05:28;;;;;;;6.35;1.80;;;;;;;23.17;55.41;101147.78;4989112;28;20113;-65
2021/09/27 11:07:57;;;;;;;4.70;2.20;;;;;;;23.17;55.38;101160.25;4989532;28;20050;-65
2021/09/27 11:10:27;;;;;;;5.25;2.22;;;;;;;23.14;55.49;101158.72;4990541;28;20394;-65
2021/09/27 11:12:54;;;;;;;3.42;1.80;;;;;;;23.17;55.67;101152.28;4990638;28;20045;-65
2021/09/27 11:15:31;;;;;;;5.15;1.83;;;;;;;23.18;55.33;101160.13;4991383;28;20121;-64
2021/09/27 11:18:24;;;;;;;4.18;2.00;;;;;;;23.18;55.12;101146.81;4991328;28;20042;-63
2021/09/27 11:20:49;;;;;;;6.72;2.00;;;;;;;23.21;55.11;101142.19;5009825;28;20034;-65
2021/09/27 11:23:20;;;;;;;4.97;2.03;;;;;;;23.22;55.03;101138.53;5011813;28;20053;-64
2021/09/27 11:26:03;;;;;;;4.10;1.80;;;;;;;23.22;54.75;101142.03;5010135;28;20286;-63
2021/09/27 11:28:39;;;;;;;4.13;1.92;;;;;;;23.22;55.03;101141.19;5010546;28;20562;-64
2021/09/27 11:31:30;;;;;;;3.53;2.00;;;;;;;23.22;55.19;101144.69;5011097;28;20030;-66
2021/09/27 11:34:08;;;;;;;4.40;2.78;;;;;;;23.18;54.96;101144.16;5011977;28;20026;-67
2021/09/27 11:36:53;;;;;;;4.03;1.90;;;;;;;23.17;55.06;101141.66;5011694;28;20429;-65
2021/09/27 11:39:36;;;;;;;5.88;1.77;;;;;;;23.15;55.02;101139.13;5013619;28;20469;-66
2021/09/27 11:42:19;;;;;;;5.70;1.92;;;;;;;23.17;54.82;101136.34;5013031;28;20477;-65
2021/09/27 11:45:12;;;;;;;4.75;2.30;;;;;;;23.17;54.87;101137.16;5013161;28;20429;-65
2021/09/27 11:47:41;;;;;;;3.50;1.95;;;;;;;23.19;54.86;101134.34;5013364;28;20096;-66
2021/09/27 11:50:17;;;;;;;4.47;1.90;;;;;;;23.17;55.08;101129.19;5012449;28;20484;-65
2021/09/27 11:52:51;;;;;;;2.88;1.58;;;;;;;23.18;54.97;101125.56;5013372;28;20034;-63
2021/09/27 11:55:33;;;;;;;4.78;1.80;;;;;;;23.21;54.89;101128.88;5011291;28;20070;-64
2021/09/27 11:58:16;;;;;;;3.35;1.80;;;;;;;23.22;55.16;101134.06;5012890;28;20030;-64
2021/09/27 12:00:49;;;;;;;3.90;1.80;;;;;;;23.22;54.91;101122.59;5011834;28;20570;-65
2021/09/27 12:03:21;;;;;;;3.50;1.98;;;;;;;23.22;54.71;101136.72;5013638;28;20050;-64
2021/09/27 12:06:22;;;;;;;5.20;2.17;;;;;;;23.25;54.83;101130.25;5013225;28;20105;-65
2021/09/27 12:09:02;;;;;;;5.32;2.03;;;;;;;23.27;54.89;101125.63;5012560;28;20069;-65
2021/09/27 12:11:28;;;;;;;3.90;2.00;;;;;;;23.28;54.87;101124.66;5012908;28;20037;-66
2021/09/27 12:14:00;;;;;;;4.65;1.90;;;;;;;23.30;55.08;101131.47;5013022;28;20026;-66